createdAt,value
2022-09-28T00:01:17.478Z,80.31
2022-09-28T00:03:48.120Z,80.31
2022-09-28T00:06:26.633Z,80.34
2022-09-28T00:08:55.035Z,80.41
2022-09-28T00:11:28.069Z,80.52
2022-09-28T00:14:02.307Z,80.64
2022-09-28T00:16:38.764Z,80.63
2022-09-28T00:19:08.229Z,80.45
2022-09-28T00:21:38.987Z,80.51
2022-09-28T00:24:30.457Z,80.62
2022-09-28T00:27:01.426Z,80.58
2022-09-28T00:29:35.451Z,80.63
2022-09-28T00:32:07.819Z,80.72
2022-09-28T00:34:40.667Z,80.67
2022-09-28T00:37:09.926Z,80.75
2022-09-28T00:39:41.233Z,80.63
2022-09-28T00:42:21.984Z,80.68
2022-09-28T00:44:59.874Z,80.66
2022-09-28T00:47:53.628Z,80.62
2022-09-28T00:50:28.851Z,80.73
2022-09-28T00:53:20.158Z,80.80
2022-09-28T00:55:51.914Z,80.76
2022-09-28T00:58:27.460Z,80.80
2022-09-28T01:00:58.766Z,80.77
2022-09-28T01:03:28.650Z,80.84
2022-09-28T01:06:00.299Z,80.95
2022-09-28T01:08:31.285Z,81.02
2022-09-28T01:11:00.579Z,81.14
2022-09-28T01:13:32.602Z,81.35
2022-09-28T01:16:54.380Z,81.36
2022-09-28T01:20:12.500Z,81.32
2022-09-28T01:23:35.795Z,81.45
2022-09-28T01:26:25.033Z,81.49
2022-09-28T01:29:02.129Z,81.57
2022-09-28T01:31:35.870Z,81.60
2022-09-28T01:34:17.496Z,81.80
2022-09-28T01:36:50.813Z,81.90
2022-09-28T01:39:29.438Z,81.89
2022-09-28T01:42:05.767Z,81.94
2022-09-28T01:44:41.741Z,82.08
2022-09-28T01:47:15.276Z,82.26
2022-09-28T01:50:16.200Z,82.22
2022-09-28T01:52:56.333Z,82.21
2022-09-28T01:55:40.079Z,82.39
2022-09-28T01:58:20.297Z,82.24
2022-09-28T02:00:56.335Z,82.38
2022-09-28T02:03:38.081Z,82.29
2022-09-28T02:06:15.476Z,82.38
2022-09-28T02:08:54.646Z,82.27
2022-09-28T02:11:25.069Z,82.44
2022-09-28T02:14:05.325Z,82.43
2022-09-28T02:16:41.791Z,82.58
2022-09-28T02:19:20.002Z,82.78
2022-09-28T02:22:25.539Z,82.66
2022-09-28T02:25:26.598Z,83.00
2022-09-28T02:28:06.579Z,83.17
2022-09-28T02:30:38.779Z,83.51
2022-09-28T02:33:15.393Z,83.36
2022-09-28T02:35:43.910Z,83.35
2022-09-28T02:38:14.296Z,83.39
2022-09-28T02:41:08.729Z,83.51
2022-09-28T02:43:58.442Z,83.48
2022-09-28T02:46:38.843Z,83.37
2022-09-28T02:49:37.305Z,83.59
2022-09-28T02:52:11.415Z,83.65
2022-09-28T02:54:53.330Z,83.72
2022-09-28T02:57:49.429Z,83.76
2022-09-28T03:00:23.422Z,83.70
2022-09-28T03:03:33.047Z,83.87
2022-09-28T03:06:23.482Z,83.92
2022-09-28T03:09:07.126Z,83.85
2022-09-28T03:11:43.705Z,83.82
2022-09-28T03:14:12.098Z,83.62
2022-09-28T03:16:58.097Z,83.54
2022-09-28T03:19:31.854Z,83.63
2022-09-28T03:22:00.773Z,83.72
2022-09-28T03:24:28.659Z,83.90
2022-09-28T03:26:56.306Z,83.83
2022-09-28T03:29:24.066Z,83.88
2022-09-28T03:31:56.703Z,83.88
2022-09-28T03:34:24.385Z,83.79
2022-09-28T03:36:52.394Z,83.84
2022-09-28T03:39:20.193Z,83.82
2022-09-28T03:41:47.893Z,83.92
2022-09-28T03:44:16.270Z,84.05
2022-09-28T03:46:43.949Z,84.02
2022-09-28T03:49:11.783Z,84.21
2022-09-28T03:51:39.416Z,84.11
2022-09-28T03:54:07.046Z,84.03
2022-09-28T03:56:34.741Z,84.00
2022-09-28T03:59:05.379Z,84.08
2022-09-28T04:01:33.205Z,84.07
2022-09-28T04:04:01.215Z,84.13
2022-09-28T04:06:28.985Z,84.12
2022-09-28T04:08:57.092Z,84.26
2022-09-28T04:11:24.872Z,84.19
2022-09-28T04:13:52.520Z,84.15
2022-09-28T04:16:20.632Z,84.18
2022-09-28T04:18:59.154Z,84.21
2022-09-28T04:21:47.031Z,84.11
2022-09-28T04:24:15.673Z,84.34
2022-09-28T04:26:43.344Z,84.35
2022-09-28T04:29:16.305Z,84.40
2022-09-28T04:31:55.262Z,84.47
2022-09-28T04:34:44.356Z,84.67
2022-09-28T04:37:12.592Z,84.64
2022-09-28T04:39:43.946Z,84.63
2022-09-28T04:42:14.226Z,84.71
2022-09-28T04:44:41.884Z,84.90
2022-09-28T04:47:10.337Z,84.94
2022-09-28T04:49:53.309Z,85.12
2022-09-28T04:52:27.258Z,85.02
2022-09-28T04:54:54.911Z,85.31
2022-09-28T04:57:23.566Z,85.25
2022-09-28T04:59:51.208Z,85.29
2022-09-28T05:02:19.301Z,85.25
2022-09-28T05:05:06.241Z,85.42
2022-09-28T05:07:49.473Z,85.77
2022-09-28T05:10:19.013Z,85.71
2022-09-28T05:12:46.879Z,85.75
2022-09-28T05:15:14.671Z,85.83
2022-09-28T05:17:42.396Z,85.75
2022-09-28T05:20:18.666Z,85.66
2022-09-28T05:22:46.722Z,85.68
2022-09-28T05:25:14.631Z,85.83
2022-09-28T05:27:57.934Z,86.07
2022-09-28T05:30:40.497Z,86.41
2022-09-28T05:33:38.397Z,86.18
2022-09-28T05:36:12.216Z,86.07
2022-09-28T05:38:39.977Z,85.87
2022-09-28T05:41:07.721Z,85.92
2022-09-28T05:43:36.265Z,86.01
2022-09-28T05:46:06.739Z,86.22
2022-09-28T05:48:36.857Z,86.18
2022-09-28T05:51:04.686Z,86.22
2022-09-28T05:53:32.428Z,86.40
2022-09-28T05:56:00.345Z,86.58
2022-09-28T05:58:29.002Z,86.38
2022-09-28T06:00:58.487Z,86.56
2022-09-28T06:03:26.340Z,86.61
2022-09-28T06:05:55.142Z,86.73
2022-09-28T06:08:22.873Z,86.81
2022-09-28T06:11:01.842Z,86.99
2022-09-28T06:13:29.830Z,87.12
2022-09-28T06:15:57.606Z,87.14
2022-09-28T06:18:26.838Z,87.05
2022-09-28T06:21:13.646Z,87.08
2022-09-28T06:23:49.035Z,86.91
2022-09-28T06:26:17.723Z,86.75
2022-09-28T06:28:46.071Z,86.71
2022-09-28T06:31:13.840Z,86.88
2022-09-28T06:33:47.979Z,86.78
2022-09-28T06:36:17.069Z,86.81
2022-09-28T06:38:45.255Z,86.74
2022-09-28T06:41:14.844Z,86.64
2022-09-28T06:43:43.541Z,86.74
2022-09-28T06:46:14.415Z,86.71
2022-09-28T06:48:51.276Z,86.53
2022-09-28T06:51:38.892Z,86.43
2022-09-28T06:54:19.789Z,86.25
2022-09-28T06:56:58.544Z,86.22
2022-09-28T06:59:26.251Z,86.15
2022-09-28T07:01:54.520Z,85.94
2022-09-28T07:04:43.326Z,86.13
2022-09-28T07:07:34.077Z,85.91
2022-09-28T07:10:28.396Z,85.72
2022-09-28T07:13:43.789Z,85.62
2022-09-28T07:16:07.863Z,85.28
2022-09-28T07:18:36.317Z,85.23
2022-09-28T07:21:08.312Z,85.04
2022-09-28T07:23:48.716Z,84.93
2022-09-28T07:26:25.975Z,84.70
2022-09-28T07:29:04.874Z,84.65
2022-09-28T07:31:42.915Z,84.52
2022-09-28T07:34:43.791Z,84.31
2022-09-28T07:37:27.906Z,84.07
2022-09-28T07:40:14.897Z,84.12
2022-09-28T07:42:42.715Z,83.82
2022-09-28T07:45:11.916Z,83.41
2022-09-28T07:47:39.937Z,83.26
2022-09-28T07:50:29.457Z,83.20
2022-09-28T07:53:28.443Z,82.99
2022-09-28T07:56:17.407Z,82.84
2022-09-28T07:58:57.896Z,83.11
2022-09-28T08:01:51.890Z,83.16
2022-09-28T08:04:20.530Z,82.95
2022-09-28T08:06:48.397Z,82.73
2022-09-28T08:09:16.229Z,82.77
2022-09-28T08:12:07.709Z,82.56
2022-09-28T08:14:41.554Z,82.26
2022-09-28T08:17:29.442Z,82.22
2022-09-28T08:20:18.741Z,81.96
2022-09-28T08:22:47.197Z,81.29
2022-09-28T08:25:15.055Z,81.33
2022-09-28T08:27:42.704Z,81.41
2022-09-28T08:30:11.666Z,80.86
2022-09-28T08:32:52.520Z,80.51
2022-09-28T08:35:40.901Z,79.66
2022-09-28T08:38:14.826Z,80.13
2022-09-28T08:41:45.702Z,79.53
2022-09-28T08:48:23.895Z,78.65
2022-09-28T08:51:28.239Z,79.12
2022-09-28T08:54:41.685Z,79.31
2022-09-28T08:57:26.601Z,79.46
2022-09-28T08:59:59.778Z,79.33
2022-09-28T09:02:39.796Z,79.76
2022-09-28T09:05:41.184Z,79.65
2022-09-28T09:08:33.663Z,79.54
2022-09-28T09:11:21.110Z,79.38
2022-09-28T09:14:15.505Z,78.93
2022-09-28T09:17:03.167Z,78.61
2022-09-28T09:20:13.277Z,78.41
2022-09-28T09:23:17.744Z,77.78
2022-09-28T09:25:57.152Z,76.92
2022-09-28T09:28:40.245Z,76.50
2022-09-28T09:31:26.766Z,76.61
2022-09-28T09:34:32.543Z,76.35
2022-09-28T09:38:14.371Z,76.28
2022-09-28T09:41:35.294Z,75.80
2022-09-28T09:44:52.392Z,75.55
2022-09-28T09:47:56.289Z,75.77
2022-09-28T09:50:57.896Z,75.33
2022-09-28T09:53:53.379Z,73.50
2022-09-28T09:56:48.813Z,73.55
2022-09-28T09:59:43.086Z,72.97
2022-09-28T10:02:46.212Z,73.52
2022-09-28T10:05:35.940Z,73.36
2022-09-28T10:08:14.592Z,72.30
2022-09-28T10:11:02.383Z,72.64
2022-09-28T10:13:32.126Z,71.85
2022-09-28T10:16:02.955Z,72.13
2022-09-28T10:18:37.561Z,71.24
2022-09-28T10:21:31.509Z,71.87
2022-09-28T10:24:25.899Z,71.28
2022-09-28T10:26:56.270Z,69.73
2022-09-28T10:29:26.588Z,70.34
2022-09-28T10:31:54.627Z,70.55
2022-09-28T10:34:40.146Z,69.12
2022-09-28T10:37:12.224Z,68.37
2022-09-28T10:40:37.865Z,67.20
2022-09-28T10:43:20.340Z,66.93
2022-09-28T10:46:05.426Z,66.47
2022-09-28T10:49:15.454Z,66.77
2022-09-28T10:51:51.717Z,65.50
2022-09-28T10:54:28.883Z,64.55
2022-09-28T10:56:59.858Z,65.50
2022-09-28T10:59:47.785Z,65.75
2022-09-28T11:02:41.034Z,65.08
2022-09-28T11:05:27.653Z,65.05
2022-09-28T11:08:02.736Z,65.74
2022-09-28T11:10:35.668Z,64.39
2022-09-28T11:13:10.325Z,63.68
2022-09-28T11:15:44.102Z,62.80
2022-09-28T11:18:28.174Z,63.74
2022-09-28T11:21:12.888Z,61.72
2022-09-28T11:23:44.871Z,61.93
2022-09-28T11:26:19.049Z,61.36
2022-09-28T11:28:52.942Z,62.16
2022-09-28T11:31:30.319Z,62.42
2022-09-28T11:34:57.533Z,61.77
2022-09-28T11:38:29.432Z,61.36
2022-09-28T11:42:16.265Z,61.71
2022-09-28T11:44:49.443Z,59.97
2022-09-28T11:47:46.218Z,59.81
2022-09-28T11:50:43.384Z,59.94
2022-09-28T11:53:42.513Z,59.83
2022-09-28T11:56:40.002Z,60.40
2022-09-28T11:59:30.425Z,60.48
2022-09-28T12:02:15.634Z,60.61
2022-09-28T12:05:17.084Z,61.49
2022-09-28T12:07:55.703Z,60.43
2022-09-28T12:10:55.422Z,60.66
2022-09-28T12:13:38.974Z,60.59
2022-09-28T12:16:45.682Z,59.01
2022-09-28T12:19:20.823Z,59.55
2022-09-28T12:21:59.616Z,58.90
2022-09-28T12:24:47.478Z,60.24
2022-09-28T12:27:31.941Z,58.54
2022-09-28T12:30:22.258Z,59.05
2022-09-28T12:33:16.821Z,58.98
2022-09-28T12:36:30.159Z,58.94
2022-09-28T12:39:35.587Z,58.83
2022-09-28T12:42:45.957Z,59.89
2022-09-28T12:46:06.780Z,60.30
2022-09-28T12:49:40.983Z,59.79
2022-09-28T12:52:00.339Z,59.08
2022-09-28T12:55:02.415Z,58.63
2022-09-28T12:57:36.545Z,59.23
2022-09-28T13:00:13.713Z,58.61
2022-09-28T13:02:59.836Z,57.25
2022-09-28T13:06:09.150Z,57.48
2022-09-28T13:09:16.731Z,58.74
2022-09-28T13:12:15.643Z,57.91
2022-09-28T13:15:29.402Z,58.21
2022-09-28T13:18:18.173Z,59.84
2022-09-28T13:21:28.769Z,59.91
2022-09-28T13:24:27.861Z,59.38
2022-09-28T13:26:55.802Z,58.91
2022-09-28T13:29:25.531Z,58.35
2022-09-28T13:31:59.893Z,58.72
2022-09-28T13:34:32.938Z,58.77
2022-09-28T13:37:21.847Z,59.33
2022-09-28T13:39:56.449Z,59.41
2022-09-28T13:42:45.773Z,59.47
2022-09-28T13:45:22.434Z,59.58
2022-09-28T13:48:24.848Z,59.41
2022-09-28T13:51:13.427Z,59.34
2022-09-28T13:54:02.714Z,59.42
2022-09-28T13:56:44.884Z,59.94
2022-09-28T13:59:25.589Z,59.78
2022-09-28T14:02:28.472Z,58.64
2022-09-28T14:05:26.312Z,59.05
2022-09-28T14:08:11.128Z,58.21
2022-09-28T14:10:53.011Z,58.20
2022-09-28T14:13:45.339Z,58.59
2022-09-28T14:16:21.908Z,58.39
2022-09-28T14:18:57.693Z,58.06
2022-09-28T14:22:47.377Z,57.49
2022-09-28T14:25:30.335Z,58.10
2022-09-28T14:28:19.106Z,58.10
2022-09-28T14:30:53.060Z,58.53
2022-09-28T14:33:20.629Z,58.79
2022-09-28T14:36:05.033Z,59.05
2022-09-28T14:39:03.179Z,58.40
2022-09-28T14:41:36.084Z,58.94
2022-09-28T14:44:08.274Z,58.12
2022-09-28T14:46:47.765Z,57.34
2022-09-28T14:49:19.146Z,57.72
2022-09-28T14:51:52.839Z,58.31
2022-09-28T14:54:22.759Z,57.80
2022-09-28T14:56:53.337Z,58.49
2022-09-28T14:59:38.671Z,58.07
2022-09-28T15:02:15.394Z,57.77
2022-09-28T15:04:59.867Z,57.95
2022-09-28T15:07:42.279Z,56.83
2022-09-28T15:10:31.756Z,56.34
2022-09-28T15:13:05.936Z,57.41
2022-09-28T15:15:41.055Z,58.31
2022-09-28T15:18:43.696Z,58.76
2022-09-28T15:21:12.846Z,56.97
2022-09-28T15:23:43.981Z,57.42
2022-09-28T15:26:34.597Z,57.09
2022-09-28T15:29:05.067Z,56.38
2022-09-28T15:31:36.048Z,55.60
2022-09-28T15:34:22.321Z,55.92
2022-09-28T15:36:50.088Z,55.51
2022-09-28T15:39:35.856Z,55.75
2022-09-28T15:42:06.150Z,55.57
2022-09-28T15:44:44.521Z,54.23
2022-09-28T15:47:25.163Z,54.22
2022-09-28T15:50:05.736Z,51.93
2022-09-28T15:52:47.082Z,52.99
2022-09-28T15:55:36.108Z,52.18
2022-09-28T15:58:21.241Z,53.41
2022-09-28T16:00:51.632Z,53.57
2022-09-28T16:03:31.205Z,53.59
2022-09-28T16:05:58.763Z,54.89
2022-09-28T16:08:46.099Z,55.19
2022-09-28T16:11:20.032Z,55.42
2022-09-28T16:13:53.713Z,55.70
2022-09-28T16:16:29.801Z,55.69
2022-09-28T16:19:01.045Z,55.96
2022-09-28T16:21:38.701Z,56.96
2022-09-28T16:24:08.470Z,57.31
2022-09-28T16:26:38.926Z,57.28
2022-09-28T16:29:39.919Z,57.58
2022-09-28T16:32:26.081Z,56.97
2022-09-28T16:35:22.546Z,57.86
2022-09-28T16:38:09.760Z,57.56
2022-09-28T16:40:49.543Z,57.89
2022-09-28T16:43:30.198Z,58.04
2022-09-28T16:46:12.017Z,57.87
2022-09-28T16:48:49.138Z,58.05
2022-09-28T16:51:18.387Z,57.74
2022-09-28T16:54:04.808Z,58.24
2022-09-28T16:56:34.462Z,58.18
2022-09-28T16:59:03.238Z,58.91
2022-09-28T17:01:31.328Z,59.41
2022-09-28T17:03:59.125Z,60.02
2022-09-28T17:06:27.500Z,59.90
2022-09-28T17:08:56.627Z,60.00
2022-09-28T17:11:25.241Z,59.25
2022-09-28T17:13:58.988Z,60.10
2022-09-28T17:16:59.958Z,60.77
2022-09-28T17:19:24.648Z,60.55
2022-09-28T17:21:53.378Z,60.30
2022-09-28T17:24:21.423Z,59.80
2022-09-28T17:26:51.792Z,59.69
2022-09-28T17:29:19.836Z,59.93
2022-09-28T17:31:48.138Z,59.86
2022-09-28T17:34:16.562Z,59.71
2022-09-28T17:36:45.243Z,60.19
2022-09-28T17:39:19.033Z,60.83
2022-09-28T17:41:47.078Z,61.29
2022-09-28T17:44:18.036Z,61.01
2022-09-28T17:46:48.929Z,61.66
2022-09-28T17:49:17.142Z,62.04
2022-09-28T17:51:44.955Z,62.20
2022-09-28T17:54:19.296Z,62.79
2022-09-28T17:56:47.022Z,63.44
2022-09-28T17:59:18.934Z,63.99
2022-09-28T18:01:48.274Z,64.77
2022-09-28T18:04:39.664Z,64.98
2022-09-28T18:07:04.922Z,65.77
2022-09-28T18:09:32.609Z,65.96
2022-09-28T18:12:04.653Z,66.15
2022-09-28T18:14:32.842Z,66.31
2022-09-28T18:17:00.581Z,66.36
2022-09-28T18:19:32.403Z,66.81
2022-09-28T18:22:01.396Z,67.26
2022-09-28T18:24:29.840Z,67.23
2022-09-28T18:26:57.678Z,67.57
2022-09-28T18:29:26.225Z,68.03
2022-09-28T18:31:55.741Z,68.51
2022-09-28T18:34:23.483Z,68.79
2022-09-28T18:36:51.268Z,69.14
2022-09-28T18:39:19.041Z,69.26
2022-09-28T18:41:46.839Z,69.47
2022-09-28T18:44:14.986Z,69.61
2022-09-28T18:46:43.528Z,69.37
2022-09-28T18:49:11.630Z,69.44
2022-09-28T18:51:39.509Z,69.45
2022-09-28T18:54:07.725Z,69.30
2022-09-28T18:56:37.248Z,69.57
2022-09-28T18:59:11.762Z,70.06
2022-09-28T19:01:41.990Z,70.35
2022-09-28T19:04:11.394Z,70.55
2022-09-28T19:06:41.683Z,70.59
2022-09-28T19:09:09.523Z,70.57
2022-09-28T19:11:37.227Z,70.61
2022-09-28T19:14:04.976Z,70.46
2022-09-28T19:16:34.061Z,70.01
2022-09-28T19:19:03.109Z,69.69
2022-09-28T19:21:31.275Z,69.37
2022-09-28T19:24:03.541Z,69.10
2022-09-28T19:26:32.986Z,69.17
2022-09-28T19:29:02.839Z,68.97
2022-09-28T19:31:30.997Z,68.88
2022-09-28T19:33:59.245Z,69.11
2022-09-28T19:36:28.521Z,69.30
2022-09-28T19:38:58.918Z,69.49
2022-09-28T19:41:43.358Z,69.52
2022-09-28T19:44:25.719Z,69.28
2022-09-28T19:47:06.679Z,69.40
2022-09-28T19:49:39.081Z,69.44
2022-09-28T19:52:16.515Z,69.39
2022-09-28T19:54:57.372Z,69.22
2022-09-28T19:57:32.524Z,69.57
2022-09-28T20:00:03.522Z,69.87
2022-09-28T20:02:36.003Z,70.00
2022-09-28T20:05:03.944Z,70.11
2022-09-28T20:07:33.322Z,69.96
2022-09-28T20:10:01.052Z,70.34
2022-09-28T20:12:28.781Z,70.88
2022-09-28T20:14:56.539Z,71.30
2022-09-28T20:17:24.217Z,71.66
2022-09-28T20:19:51.913Z,71.61
2022-09-28T20:22:20.050Z,71.89
2022-09-28T20:24:47.976Z,72.10
2022-09-28T20:27:15.888Z,72.24
2022-09-28T20:29:43.578Z,72.44
2022-09-28T20:32:11.593Z,72.90
2022-09-28T20:34:39.292Z,73.34
2022-09-28T20:37:06.930Z,73.44
2022-09-28T20:39:34.663Z,73.45
2022-09-28T20:42:02.855Z,73.26
2022-09-28T20:44:31.230Z,73.48
2022-09-28T20:46:59.566Z,73.48
2022-09-28T20:49:28.101Z,73.22
2022-09-28T20:51:55.865Z,73.30
2022-09-28T20:54:23.691Z,73.33
2022-09-28T20:56:51.710Z,73.17
2022-09-28T20:59:22.622Z,72.86
2022-09-28T21:01:50.939Z,72.79
2022-09-28T21:04:19.509Z,72.74
2022-09-28T21:06:47.655Z,72.67
2022-09-28T21:09:15.282Z,72.77
2022-09-28T21:11:43.012Z,73.09
2022-09-28T21:14:10.865Z,73.35
2022-09-28T21:16:39.072Z,73.67
2022-09-28T21:19:06.890Z,73.85
2022-09-28T21:21:34.758Z,73.99
2022-09-28T21:24:02.698Z,74.06
2022-09-28T21:26:31.343Z,74.31
2022-09-28T21:29:00.942Z,74.64
2022-09-28T21:31:47.451Z,74.88
2022-09-28T21:34:20.855Z,74.97
2022-09-28T21:36:51.192Z,74.89
2022-09-28T21:39:20.209Z,74.93
2022-09-28T21:41:48.067Z,75.15
2022-09-28T21:44:15.945Z,74.96
2022-09-28T21:46:43.663Z,75.13
2022-09-28T21:49:12.543Z,75.33
2022-09-28T21:51:40.267Z,75.64
2022-09-28T21:54:08.509Z,75.57
2022-09-28T21:56:36.203Z,75.72
2022-09-28T21:59:03.837Z,76.07
2022-09-28T22:01:31.780Z,76.34
2022-09-28T22:03:59.929Z,76.39
2022-09-28T22:06:28.177Z,76.38
2022-09-28T22:08:57.051Z,76.62
2022-09-28T22:11:28.327Z,76.86
2022-09-28T22:13:59.618Z,77.04
2022-09-28T22:16:30.662Z,77.03
2022-09-28T22:18:59.644Z,76.98
2022-09-28T22:21:31.986Z,76.94
2022-09-28T22:24:07.030Z,77.00
2022-09-28T22:26:37.081Z,76.93
2022-09-28T22:29:08.597Z,76.99
2022-09-28T22:31:40.840Z,76.88
2022-09-28T22:34:09.984Z,76.85
2022-09-28T22:36:37.685Z,76.80
2022-09-28T22:39:05.652Z,76.74
2022-09-28T22:41:33.497Z,76.75
2022-09-28T22:44:01.597Z,76.78
2022-09-28T22:46:31.840Z,76.81
2022-09-28T22:49:00.681Z,76.75
2022-09-28T22:51:30.781Z,76.73
2022-09-28T22:53:59.152Z,76.89
2022-09-28T22:56:27.219Z,77.15
2022-09-28T22:58:55.370Z,77.03
2022-09-28T23:01:30.078Z,77.23
2022-09-28T23:03:59.372Z,77.33
2022-09-28T23:06:30.221Z,77.57
2022-09-28T23:08:58.046Z,77.62
2022-09-28T23:11:25.851Z,77.78
2022-09-28T23:13:57.443Z,78.10
2022-09-28T23:16:26.562Z,78.06
2022-09-28T23:18:56.176Z,78.01
2022-09-28T23:21:26.442Z,77.97
2022-09-28T23:23:58.418Z,78.06
2022-09-28T23:26:32.582Z,78.31
2022-09-28T23:29:00.732Z,78.37
2022-09-28T23:31:33.019Z,78.22
2022-09-28T23:34:05.910Z,78.31
2022-09-28T23:36:34.639Z,78.47
2022-09-28T23:39:03.542Z,78.57
2022-09-28T23:41:31.252Z,78.53
2022-09-28T23:43:58.901Z,78.63
2022-09-28T23:46:26.707Z,78.70
2022-09-28T23:48:54.474Z,78.75
2022-09-28T23:51:22.294Z,78.60
2022-09-28T23:53:49.986Z,78.67
2022-09-28T23:56:17.674Z,78.74
2022-09-28T23:58:45.896Z,78.88
